METAR Reports From Nearby Airports

 

KTIW - Tacoma, Washington, USA
Distance from station: S 6mi, 10km
Updated: Sun, 23-Apr-2017 12:53am PDT
Partly cloudy
Partly cloudy
 Wind from SSW
Wind: SSW 6 mph , 9 km/h
Temperature: 48°F , 9°C
Wind Chill: 45°F , 7°C
Dew Point: 45°F , 7°C
Humidity: 87%
Barometer: 29.97 inHg , 1014.9 hPa
Clouds: Partly cloudy
Visibility: 10 miles , 16 km
Cloud details: Partly cloudy 6000 ft
2017/04/23 07:53 KTIW 230753Z AUTO 20005KT 10SM SCT060 09/07 A2997 RMK AO2 SLP149 T00890072 401500083
KPWT - Bremerton Ntnl, Washington, USA
Distance from station: NW 13mi, 20km
Updated: Wed, 19-Apr-2017 4:55am PDT
NOT Current

 
2017/04/19 11:55 KPWT 191155Z AUTO RMK AO1
KSEA - Seattle/Metro, Washington, USA
Distance from station: ENE 14mi, 23km
Updated: Sun, 23-Apr-2017 12:53am PDT
Mostly cloudy
Mostly cloudy
 Wind from SSW
Wind: SSW 8 mph , 13 km/h
Temperature: 48°F , 9°C
Wind Chill: 44°F , 7°C
Dew Point: 45°F , 7°C
Humidity: 87%
Barometer: 29.96 inHg , 1014.6 hPa
Clouds: Mostly cloudy
Visibility: 10 miles , 16 km
Cloud details: Few Clouds 3000 ft
Partly cloudy 4500 ft
Mostly cloudy 6000 ft
2017/04/23 07:53 KSEA 230753Z 20007KT 10SM FEW030 SCT045 BKN060 09/07 A2996 RMK AO2 SLP154 T00940072 401720089
 
KTCM - Tacoma/Mc Chord, Washington, USA
Distance from station: SSE 17mi, 28km
Updated: Sun, 23-Apr-2017 12:58am PDT
Overcast
Overcast
 Wind from S
Wind: S 8 mph , 13 km/h
Temperature: 46°F , 8°C
Wind Chill: 42°F , 6°C
Dew Point: 46°F , 8°C
Humidity: 100%
Barometer: 29.97 inHg , 1014.9 hPa
Clouds: Overcast
Visibility: 10 miles , 16 km
Cloud details: Few Clouds 4400 ft
Overcast 6500 ft
2017/04/23 07:58 KTCM 230758Z AUTO 18007KT 10SM FEW044 OVC065 08/08 A2997 RMK AO2 RAB28E30 SLP153 P0000
KBFI - Seattle/Boeing, Washington, USA
Distance from station: NE 19mi, 30km
Updated: Sun, 23-Apr-2017 12:53am PDT
Partly cloudy
Partly cloudy
 Wind from SSE
Wind: SSE 6 mph , 9 km/h
Temperature: 48°F , 9°C
Wind Chill: 45°F , 7°C
Dew Point: 46°F , 8°C
Humidity: 94%
Barometer: 29.97 inHg , 1014.9 hPa
Clouds: Partly cloudy
Visibility: 10 miles , 16 km
Cloud details: Partly cloudy 6000 ft
2017/04/23 07:53 KBFI 230753Z 15005KT 10SM SCT060 09/08 A2997 RMK AO2 SLP147 T00890078 401720083
KGRF - Fort Lewis/Gray, Washington, USA
Distance from station: S 20mi, 32km
Updated: Sun, 23-Apr-2017 12:58am PDT
Few Clouds
Few Clouds
 Wind from varies
Wind: varies 2 mph , 4 km/h
Temperature: 48°F , 9°C
Dew Point: 45°F , 7°C
Humidity: 87%
Barometer: 30.00 inHg , 1015.9 hPa
Clouds: Few Clouds
Visibility: 10 miles , 16 km
Cloud details: Few Clouds 6000 ft
2017/04/23 07:58 KGRF 230758Z VRB02KT 10SM FEW060 09/07 A3000 RMK AO2A SLP160 WND DATA ESTMD ALSTG/SLP ESTMD T00890066 401500084
 
KRNT - Renton, Washington, USA
Distance from station: ENE 20mi, 32km
Updated: Sun, 23-Apr-2017 12:53am PDT
Mostly cloudy
Mostly cloudy
 Wind from calm
Wind: Calm
Temperature: 48°F , 9°C
Dew Point: 46°F , 8°C
Humidity: 94%
Barometer: 29.97 inHg , 1014.9 hPa
Clouds: Mostly cloudy
Visibility: 10 miles , 16 km
Cloud details: Partly cloudy 4900 ft
Mostly cloudy 6500 ft
2017/04/23 07:53 KRNT 230753Z AUTO 00000KT 10SM SCT049 BKN065 09/08 A2997 RMK AO2 SLP152 T00890083 401830089
KPLU - Puyallup/Thun, Washington, USA
Distance from station: SE 23mi, 36km
Updated: Sun, 23-Apr-2017 12:55am PDT

 Wind from SSE
Wind: SSE 3 mph , 6 km/h
Temperature: 50°F , 10°C
Dew Point: 46°F , 8°C
Humidity: 88%
Barometer: 29.98 inHg , 1015.2 hPa
Visibility: 10 miles , 16 km
2017/04/23 07:55 KPLU 230755Z AUTO 15003KT 10SM 10/08 A2998 RMK AO2
KSHN - Shelton, Washington, USA
Distance from station: WSW 27mi, 43km
Updated: Sun, 23-Apr-2017 12:53am PDT
Mostly cloudy
Mostly cloudy
 Wind from SW
Wind: SW 5 mph , 7 km/h
Temperature: 46°F , 8°C
Wind Chill: 44°F , 7°C
Dew Point: 45°F , 7°C
Humidity: 93%
Barometer: 29.95 inHg , 1014.2 hPa
Clouds: Mostly cloudy
Visibility: 10 miles , 16 km
Cloud details: Mostly cloudy 2700 ft
2017/04/23 07:53 KSHN 230753Z AUTO 22004KT 10SM BKN027 08/07 A2995 RMK AO2 SLP142 T00830072 401390078
 
KOLM - Olympia, Washington, USA
Distance from station: SSW 30mi, 49km
Updated: Sun, 23-Apr-2017 12:54am PDT
Clear
Clear
 Wind from calm
Wind: Calm
Temperature: 43°F , 6°C
Dew Point: 43°F , 6°C
Humidity: 100%
Barometer: 29.97 inHg , 1014.9 hPa
Clouds: Clear
Visibility: 10 miles , 16 km
2017/04/23 07:54 KOLM 230754Z AUTO 00000KT 10SM CLR 06/06 A2997 RMK AO2 SLP150 T00560056 401440056
KPAE - Everett, Washington, USA
Distance from station: NNE 41mi, 67km
Updated: Sun, 23-Apr-2017 1:04am PDT
Overcast
Overcast
 Wind from SE
Wind: SE 9 mph , 15 km/h
Temperature: 48°F , 9°C
Wind Chill: 44°F , 7°C
Dew Point: 45°F , 7°C
Humidity: 87%
Barometer: 29.95 inHg , 1014.2 hPa
Clouds: Overcast
Visibility: 10 miles , 16 km
Cloud details: Mostly cloudy 2900 ft
Overcast 3400 ft
2017/04/23 08:04 KPAE 230804Z AUTO 14008KT 10SM BKN029 OVC034 09/07 A2995 RMK AO2 T00940072
KCLS - Chehalis Central, Washington, USA
Distance from station: SSW 50mi, 80km
Updated: Sun, 23-Apr-2017 12:55am PDT
Clear
Clear
 Wind from calm
Wind: Calm
Temperature: 45°F , 7°C
Dew Point: 45°F , 7°C
Humidity: 100%
Barometer: 29.97 inHg , 1014.9 hPa
Clouds: Clear
Visibility: 10 miles , 16 km
2017/04/23 07:55 KCLS 230755Z AUTO 00000KT 10SM CLR 07/07 A2997 RMK AO2